sensor_id;sensor_type;location;lat;lon;timestamp;P1;durP1;ratioP1;P2;durP2;ratioP2
36855;SDS011;22788;51.434;6.786;2023-03-01T00:00:38;7.57;;;5.30;;
36855;SDS011;22788;51.434;6.786;2023-03-01T00:03:04;9.43;;;5.77;;
36855;SDS011;22788;51.434;6.786;2023-03-01T00:05:30;8.30;;;5.47;;
36855;SDS011;22788;51.434;6.786;2023-03-01T00:07:56;6.40;;;5.13;;
36855;SDS011;22788;51.434;6.786;2023-03-01T00:10:22;6.70;;;5.20;;
36855;SDS011;22788;51.434;6.786;2023-03-01T00:12:49;8.17;;;5.50;;
36855;SDS011;22788;51.434;6.786;2023-03-01T00:15:15;7.73;;;5.63;;
36855;SDS011;22788;51.434;6.786;2023-03-01T00:17:41;8.70;;;5.00;;
36855;SDS011;22788;51.434;6.786;2023-03-01T00:20:08;8.57;;;5.27;;
36855;SDS011;22788;51.434;6.786;2023-03-01T00:22:34;7.27;;;5.37;;
36855;SDS011;22788;51.434;6.786;2023-03-01T00:25:00;6.57;;;4.77;;
36855;SDS011;22788;51.434;6.786;2023-03-01T00:27:26;6.43;;;5.33;;
36855;SDS011;22788;51.434;6.786;2023-03-01T00:29:54;7.80;;;5.90;;
36855;SDS011;22788;51.434;6.786;2023-03-01T00:32:20;8.83;;;5.67;;
36855;SDS011;22788;51.434;6.786;2023-03-01T00:34:46;8.83;;;5.53;;
36855;SDS011;22788;51.434;6.786;2023-03-01T00:37:12;7.40;;;5.07;;
36855;SDS011;22788;51.434;6.786;2023-03-01T00:39:38;7.40;;;5.00;;
36855;SDS011;22788;51.434;6.786;2023-03-01T00:42:04;7.80;;;5.10;;
36855;SDS011;22788;51.434;6.786;2023-03-01T00:44:30;9.07;;;5.77;;
36855;SDS011;22788;51.434;6.786;2023-03-01T00:46:59;6.10;;;4.70;;
36855;SDS011;22788;51.434;6.786;2023-03-01T00:49:25;6.37;;;4.97;;
36855;SDS011;22788;51.434;6.786;2023-03-01T00:51:51;6.20;;;5.27;;
36855;SDS011;22788;51.434;6.786;2023-03-01T00:54:17;8.13;;;5.73;;
36855;SDS011;22788;51.434;6.786;2023-03-01T00:56:43;7.00;;;5.70;;
36855;SDS011;22788;51.434;6.786;2023-03-01T00:59:09;8.27;;;5.70;;
36855;SDS011;22788;51.434;6.786;2023-03-01T01:01:35;8.43;;;5.50;;
36855;SDS011;22788;51.434;6.786;2023-03-01T01:04:03;7.53;;;5.13;;
36855;SDS011;22788;51.434;6.786;2023-03-01T01:06:32;11.33;;;5.30;;
36855;SDS011;22788;51.434;6.786;2023-03-01T01:09:00;6.90;;;5.33;;
36855;SDS011;22788;51.434;6.786;2023-03-01T01:11:27;5.87;;;4.53;;
36855;SDS011;22788;51.434;6.786;2023-03-01T01:13:54;7.30;;;5.07;;
36855;SDS011;22788;51.434;6.786;2023-03-01T01:16:22;10.00;;;5.37;;
36855;SDS011;22788;51.434;6.786;2023-03-01T01:18:49;7.77;;;5.40;;
36855;SDS011;22788;51.434;6.786;2023-03-01T01:21:18;6.80;;;5.50;;
36855;SDS011;22788;51.434;6.786;2023-03-01T01:23:46;6.07;;;5.00;;
36855;SDS011;22788;51.434;6.786;2023-03-01T01:26:13;7.27;;;5.03;;
36855;SDS011;22788;51.434;6.786;2023-03-01T01:28:41;7.90;;;5.67;;
36855;SDS011;22788;51.434;6.786;2023-03-01T01:31:07;7.80;;;5.50;;
36855;SDS011;22788;51.434;6.786;2023-03-01T01:33:33;7.53;;;4.97;;
36855;SDS011;22788;51.434;6.786;2023-03-01T01:35:59;7.83;;;4.83;;
36855;SDS011;22788;51.434;6.786;2023-03-01T01:38:27;7.53;;;4.83;;
36855;SDS011;22788;51.434;6.786;2023-03-01T01:40:53;7.20;;;5.57;;
36855;SDS011;22788;51.434;6.786;2023-03-01T01:43:21;6.17;;;5.37;;
36855;SDS011;22788;51.434;6.786;2023-03-01T01:45:48;6.47;;;5.27;;
36855;SDS011;22788;51.434;6.786;2023-03-01T01:48:19;7.17;;;5.47;;
36855;SDS011;22788;51.434;6.786;2023-03-01T01:50:49;7.30;;;5.30;;
36855;SDS011;22788;51.434;6.786;2023-03-01T01:53:20;5.47;;;4.97;;
36855;SDS011;22788;51.434;6.786;2023-03-01T01:55:51;9.00;;;5.03;;
36855;SDS011;22788;51.434;6.786;2023-03-01T01:58:20;7.07;;;5.33;;
36855;SDS011;22788;51.434;6.786;2023-03-01T02:00:47;7.77;;;5.73;;
36855;SDS011;22788;51.434;6.786;2023-03-01T02:03:14;8.00;;;5.20;;
36855;SDS011;22788;51.434;6.786;2023-03-01T02:05:45;7.60;;;5.50;;
36855;SDS011;22788;51.434;6.786;2023-03-01T02:08:17;10.07;;;5.97;;
36855;SDS011;22788;51.434;6.786;2023-03-01T02:10:45;8.83;;;5.60;;
36855;SDS011;22788;51.434;6.786;2023-03-01T02:13:14;5.70;;;5.17;;
36855;SDS011;22788;51.434;6.786;2023-03-01T02:15:41;7.10;;;5.13;;
36855;SDS011;22788;51.434;6.786;2023-03-01T02:18:08;8.80;;;6.23;;
36855;SDS011;22788;51.434;6.786;2023-03-01T02:20:39;8.07;;;6.30;;
36855;SDS011;22788;51.434;6.786;2023-03-01T02:23:13;6.13;;;5.10;;
36855;SDS011;22788;51.434;6.786;2023-03-01T02:25:43;6.93;;;5.60;;
36855;SDS011;22788;51.434;6.786;2023-03-01T02:28:21;12.17;;;6.00;;
36855;SDS011;22788;51.434;6.786;2023-03-01T02:30:55;8.40;;;6.20;;
36855;SDS011;22788;51.434;6.786;2023-03-01T02:33:21;6.67;;;5.07;;
36855;SDS011;22788;51.434;6.786;2023-03-01T02:35:47;6.70;;;5.00;;
36855;SDS011;22788;51.434;6.786;2023-03-01T02:38:13;10.20;;;5.53;;
36855;SDS011;22788;51.434;6.786;2023-03-01T02:40:39;7.23;;;5.67;;
36855;SDS011;22788;51.434;6.786;2023-03-01T02:43:07;7.80;;;5.50;;
36855;SDS011;22788;51.434;6.786;2023-03-01T02:45:36;7.30;;;5.20;;
36855;SDS011;22788;51.434;6.786;2023-03-01T02:48:03;8.23;;;5.10;;
36855;SDS011;22788;51.434;6.786;2023-03-01T02:53:21;7.07;;;5.53;;
36855;SDS011;22788;51.434;6.786;2023-03-01T02:55:53;7.23;;;5.67;;
36855;SDS011;22788;51.434;6.786;2023-03-01T02:58:19;9.43;;;5.87;;
36855;SDS011;22788;51.434;6.786;2023-03-01T03:00:47;8.67;;;5.37;;
36855;SDS011;22788;51.434;6.786;2023-03-01T03:03:13;8.27;;;6.07;;
36855;SDS011;22788;51.434;6.786;2023-03-01T03:05:40;9.87;;;6.00;;
36855;SDS011;22788;51.434;6.786;2023-03-01T03:08:06;7.87;;;5.70;;
36855;SDS011;22788;51.434;6.786;2023-03-01T03:10:33;7.10;;;5.90;;
36855;SDS011;22788;51.434;6.786;2023-03-01T03:13:02;11.00;;;6.07;;
36855;SDS011;22788;51.434;6.786;2023-03-01T03:15:29;7.80;;;6.47;;
36855;SDS011;22788;51.434;6.786;2023-03-01T03:17:58;7.97;;;6.00;;
36855;SDS011;22788;51.434;6.786;2023-03-01T03:20:24;7.23;;;5.60;;
36855;SDS011;22788;51.434;6.786;2023-03-01T03:22:52;7.47;;;6.00;;
36855;SDS011;22788;51.434;6.786;2023-03-01T03:25:20;9.33;;;6.20;;
36855;SDS011;22788;51.434;6.786;2023-03-01T03:27:47;8.47;;;5.83;;
36855;SDS011;22788;51.434;6.786;2023-03-01T03:30:16;6.60;;;5.50;;
36855;SDS011;22788;51.434;6.786;2023-03-01T03:32:44;6.17;;;5.53;;
36855;SDS011;22788;51.434;6.786;2023-03-01T03:35:13;7.87;;;5.67;;
36855;SDS011;22788;51.434;6.786;2023-03-01T03:37:40;8.40;;;5.47;;
36855;SDS011;22788;51.434;6.786;2023-03-01T03:40:07;8.90;;;5.97;;
36855;SDS011;22788;51.434;6.786;2023-03-01T03:42:34;8.27;;;6.00;;
36855;SDS011;22788;51.434;6.786;2023-03-01T03:45:00;10.30;;;6.30;;
36855;SDS011;22788;51.434;6.786;2023-03-01T03:47:26;7.17;;;5.60;;
36855;SDS011;22788;51.434;6.786;2023-03-01T03:49:52;8.17;;;5.70;;
36855;SDS011;22788;51.434;6.786;2023-03-01T03:52:19;7.50;;;6.17;;
36855;SDS011;22788;51.434;6.786;2023-03-01T03:54:45;8.57;;;6.63;;
36855;SDS011;22788;51.434;6.786;2023-03-01T03:57:11;7.97;;;6.13;;
36855;SDS011;22788;51.434;6.786;2023-03-01T03:59:37;10.20;;;5.60;;
36855;SDS011;22788;51.434;6.786;2023-03-01T04:02:03;7.97;;;6.10;;
36855;SDS011;22788;51.434;6.786;2023-03-01T04:04:29;8.03;;;6.07;;
36855;SDS011;22788;51.434;6.786;2023-03-01T04:06:55;7.77;;;6.20;;
36855;SDS011;22788;51.434;6.786;2023-03-01T04:09:23;8.90;;;6.40;;
36855;SDS011;22788;51.434;6.786;2023-03-01T04:11:49;9.43;;;6.20;;
36855;SDS011;22788;51.434;6.786;2023-03-01T04:14:15;9.37;;;6.00;;
36855;SDS011;22788;51.434;6.786;2023-03-01T04:16:41;9.80;;;6.37;;
36855;SDS011;22788;51.434;6.786;2023-03-01T04:19:07;8.63;;;5.70;;
36855;SDS011;22788;51.434;6.786;2023-03-01T04:21:33;7.23;;;5.70;;
36855;SDS011;22788;51.434;6.786;2023-03-01T04:23:59;6.97;;;5.60;;
36855;SDS011;22788;51.434;6.786;2023-03-01T04:26:26;8.10;;;5.97;;
36855;SDS011;22788;51.434;6.786;2023-03-01T04:28:52;8.57;;;6.17;;
36855;SDS011;22788;51.434;6.786;2023-03-01T04:31:18;7.17;;;5.90;;
36855;SDS011;22788;51.434;6.786;2023-03-01T04:33:47;7.10;;;5.97;;
36855;SDS011;22788;51.434;6.786;2023-03-01T04:36:16;11.47;;;6.03;;
36855;SDS011;22788;51.434;6.786;2023-03-01T04:38:43;8.60;;;6.50;;
36855;SDS011;22788;51.434;6.786;2023-03-01T04:41:10;9.13;;;5.97;;
36855;SDS011;22788;51.434;6.786;2023-03-01T04:43:38;8.17;;;5.90;;
36855;SDS011;22788;51.434;6.786;2023-03-01T04:46:05;8.60;;;6.33;;
36855;SDS011;22788;51.434;6.786;2023-03-01T04:48:32;9.40;;;6.10;;
36855;SDS011;22788;51.434;6.786;2023-03-01T04:50:59;9.00;;;5.20;;
36855;SDS011;22788;51.434;6.786;2023-03-01T04:53:25;12.03;;;5.53;;
36855;SDS011;22788;51.434;6.786;2023-03-01T04:55:51;9.20;;;6.20;;
36855;SDS011;22788;51.434;6.786;2023-03-01T04:58:19;13.77;;;5.87;;
36855;SDS011;22788;51.434;6.786;2023-03-01T05:00:46;6.63;;;5.63;;
36855;SDS011;22788;51.434;6.786;2023-03-01T05:03:12;9.43;;;6.50;;
36855;SDS011;22788;51.434;6.786;2023-03-01T05:05:38;8.40;;;5.73;;
36855;SDS011;22788;51.434;6.786;2023-03-01T05:08:06;7.93;;;6.27;;
36855;SDS011;22788;51.434;6.786;2023-03-01T05:10:33;7.77;;;6.03;;
36855;SDS011;22788;51.434;6.786;2023-03-01T05:13:01;10.07;;;6.77;;
36855;SDS011;22788;51.434;6.786;2023-03-01T05:15:29;12.80;;;7.87;;
36855;SDS011;22788;51.434;6.786;2023-03-01T05:17:58;8.17;;;6.03;;
36855;SDS011;22788;51.434;6.786;2023-03-01T05:20:25;8.67;;;5.67;;
36855;SDS011;22788;51.434;6.786;2023-03-01T05:22:52;8.80;;;6.33;;
36855;SDS011;22788;51.434;6.786;2023-03-01T05:25:21;9.00;;;6.23;;
36855;SDS011;22788;51.434;6.786;2023-03-01T05:27:47;11.27;;;6.97;;
36855;SDS011;22788;51.434;6.786;2023-03-01T05:30:14;8.87;;;6.10;;
36855;SDS011;22788;51.434;6.786;2023-03-01T05:32:41;9.33;;;6.43;;
36855;SDS011;22788;51.434;6.786;2023-03-01T05:35:09;11.70;;;7.33;;
36855;SDS011;22788;51.434;6.786;2023-03-01T05:37:36;8.37;;;6.43;;
36855;SDS011;22788;51.434;6.786;2023-03-01T05:40:02;11.00;;;6.70;;
36855;SDS011;22788;51.434;6.786;2023-03-01T05:42:29;9.93;;;6.17;;
36855;SDS011;22788;51.434;6.786;2023-03-01T05:44:55;9.17;;;6.43;;
36855;SDS011;22788;51.434;6.786;2023-03-01T05:47:21;9.33;;;6.50;;
36855;SDS011;22788;51.434;6.786;2023-03-01T05:49:47;12.53;;;7.13;;
36855;SDS011;22788;51.434;6.786;2023-03-01T05:52:14;7.00;;;6.30;;
36855;SDS011;22788;51.434;6.786;2023-03-01T05:54:40;10.20;;;6.63;;
36855;SDS011;22788;51.434;6.786;2023-03-01T05:57:06;7.50;;;5.77;;
36855;SDS011;22788;51.434;6.786;2023-03-01T05:59:32;8.97;;;6.77;;
36855;SDS011;22788;51.434;6.786;2023-03-01T06:01:58;9.37;;;6.60;;
36855;SDS011;22788;51.434;6.786;2023-03-01T06:04:24;8.43;;;6.07;;
36855;SDS011;22788;51.434;6.786;2023-03-01T06:06:50;9.43;;;6.90;;
36855;SDS011;22788;51.434;6.786;2023-03-01T06:09:18;9.40;;;6.40;;
36855;SDS011;22788;51.434;6.786;2023-03-01T06:11:44;10.00;;;6.93;;
36855;SDS011;22788;51.434;6.786;2023-03-01T06:14:10;10.33;;;7.20;;
36855;SDS011;22788;51.434;6.786;2023-03-01T06:16:36;9.23;;;6.73;;
36855;SDS011;22788;51.434;6.786;2023-03-01T06:19:02;8.70;;;6.53;;
36855;SDS011;22788;51.434;6.786;2023-03-01T06:21:28;9.20;;;6.80;;
36855;SDS011;22788;51.434;6.786;2023-03-01T06:23:54;9.80;;;6.53;;
36855;SDS011;22788;51.434;6.786;2023-03-01T06:26:21;10.30;;;7.27;;
36855;SDS011;22788;51.434;6.786;2023-03-01T06:28:47;10.13;;;6.37;;
36855;SDS011;22788;51.434;6.786;2023-03-01T06:31:14;9.37;;;6.27;;
36855;SDS011;22788;51.434;6.786;2023-03-01T06:33:40;8.10;;;6.47;;
36855;SDS011;22788;51.434;6.786;2023-03-01T06:36:06;8.33;;;6.33;;
36855;SDS011;22788;51.434;6.786;2023-03-01T06:38:33;7.73;;;6.10;;
36855;SDS011;22788;51.434;6.786;2023-03-01T06:40:59;8.90;;;6.50;;
36855;SDS011;22788;51.434;6.786;2023-03-01T06:43:27;8.50;;;6.33;;
36855;SDS011;22788;51.434;6.786;2023-03-01T06:45:53;10.30;;;6.97;;
36855;SDS011;22788;51.434;6.786;2023-03-01T06:48:19;8.07;;;6.37;;
36855;SDS011;22788;51.434;6.786;2023-03-01T06:50:45;8.77;;;6.37;;
36855;SDS011;22788;51.434;6.786;2023-03-01T06:53:11;19.63;;;7.20;;
36855;SDS011;22788;51.434;6.786;2023-03-01T06:55:37;7.73;;;6.00;;
36855;SDS011;22788;51.434;6.786;2023-03-01T06:58:03;12.10;;;7.33;;
36855;SDS011;22788;51.434;6.786;2023-03-01T07:00:31;13.27;;;9.52;;
36855;SDS011;22788;51.434;6.786;2023-03-01T07:02:58;12.13;;;8.30;;
36855;SDS011;22788;51.434;6.786;2023-03-01T07:05:24;14.73;;;9.65;;
36855;SDS011;22788;51.434;6.786;2023-03-01T07:07:50;11.40;;;8.03;;
36855;SDS011;22788;51.434;6.786;2023-03-01T07:10:18;10.90;;;8.17;;
36855;SDS011;22788;51.434;6.786;2023-03-01T07:12:44;13.20;;;8.40;;
36855;SDS011;22788;51.434;6.786;2023-03-01T07:15:10;10.57;;;7.73;;
36855;SDS011;22788;51.434;6.786;2023-03-01T07:17:37;13.93;;;7.90;;
36855;SDS011;22788;51.434;6.786;2023-03-01T07:20:04;9.77;;;7.47;;
36855;SDS011;22788;51.434;6.786;2023-03-01T07:22:30;11.07;;;7.83;;
36855;SDS011;22788;51.434;6.786;2023-03-01T07:24:56;10.07;;;6.83;;
36855;SDS011;22788;51.434;6.786;2023-03-01T07:27:22;10.07;;;7.23;;
36855;SDS011;22788;51.434;6.786;2023-03-01T07:29:48;11.83;;;7.37;;
36855;SDS011;22788;51.434;6.786;2023-03-01T07:32:15;12.17;;;7.87;;
36855;SDS011;22788;51.434;6.786;2023-03-01T07:34:42;11.77;;;7.60;;
36855;SDS011;22788;51.434;6.786;2023-03-01T07:37:08;13.97;;;7.67;;
36855;SDS011;22788;51.434;6.786;2023-03-01T07:39:34;13.13;;;7.83;;
36855;SDS011;22788;51.434;6.786;2023-03-01T07:42:00;10.67;;;7.97;;
36855;SDS011;22788;51.434;6.786;2023-03-01T07:44:26;7.97;;;6.73;;
36855;SDS011;22788;51.434;6.786;2023-03-01T07:46:52;12.27;;;7.33;;
36855;SDS011;22788;51.434;6.786;2023-03-01T07:49:18;10.90;;;7.97;;
36855;SDS011;22788;51.434;6.786;2023-03-01T07:51:45;8.80;;;7.27;;
36855;SDS011;22788;51.434;6.786;2023-03-01T07:54:11;10.73;;;8.00;;
36855;SDS011;22788;51.434;6.786;2023-03-01T07:56:37;12.47;;;7.57;;
36855;SDS011;22788;51.434;6.786;2023-03-01T07:59:03;12.93;;;7.57;;
36855;SDS011;22788;51.434;6.786;2023-03-01T08:01:29;11.10;;;7.10;;
36855;SDS011;22788;51.434;6.786;2023-03-01T08:03:55;12.73;;;7.20;;
36855;SDS011;22788;51.434;6.786;2023-03-01T08:06:21;12.90;;;7.67;;
36855;SDS011;22788;51.434;6.786;2023-03-01T08:08:49;12.60;;;7.60;;
36855;SDS011;22788;51.434;6.786;2023-03-01T08:11:15;8.57;;;6.90;;
36855;SDS011;22788;51.434;6.786;2023-03-01T08:13:41;11.43;;;7.80;;
36855;SDS011;22788;51.434;6.786;2023-03-01T08:16:09;9.77;;;7.10;;
36855;SDS011;22788;51.434;6.786;2023-03-01T08:18:36;11.03;;;7.37;;
36855;SDS011;22788;51.434;6.786;2023-03-01T08:21:03;9.97;;;7.20;;
36855;SDS011;22788;51.434;6.786;2023-03-01T08:23:29;9.03;;;7.27;;
36855;SDS011;22788;51.434;6.786;2023-03-01T08:26:03;10.13;;;7.53;;
36855;SDS011;22788;51.434;6.786;2023-03-01T08:28:30;10.73;;;7.43;;
36855;SDS011;22788;51.434;6.786;2023-03-01T08:30:56;10.80;;;7.27;;
36855;SDS011;22788;51.434;6.786;2023-03-01T08:33:23;8.73;;;6.60;;
36855;SDS011;22788;51.434;6.786;2023-03-01T08:35:49;11.53;;;7.33;;
36855;SDS011;22788;51.434;6.786;2023-03-01T08:38:15;10.87;;;6.70;;
36855;SDS011;22788;51.434;6.786;2023-03-01T08:40:41;10.77;;;7.20;;
36855;SDS011;22788;51.434;6.786;2023-03-01T08:43:08;12.47;;;7.10;;
36855;SDS011;22788;51.434;6.786;2023-03-01T08:45:34;14.83;;;7.60;;
36855;SDS011;22788;51.434;6.786;2023-03-01T08:48:00;9.03;;;7.10;;
36855;SDS011;22788;51.434;6.786;2023-03-01T08:50:26;10.40;;;7.37;;
36855;SDS011;22788;51.434;6.786;2023-03-01T08:52:52;10.33;;;7.20;;
36855;SDS011;22788;51.434;6.786;2023-03-01T08:55:18;13.13;;;7.63;;
36855;SDS011;22788;51.434;6.786;2023-03-01T08:57:44;11.23;;;7.17;;
36855;SDS011;22788;51.434;6.786;2023-03-01T09:00:12;10.13;;;6.87;;
36855;SDS011;22788;51.434;6.786;2023-03-01T09:02:38;12.87;;;7.00;;
36855;SDS011;22788;51.434;6.786;2023-03-01T09:05:04;10.83;;;7.00;;
36855;SDS011;22788;51.434;6.786;2023-03-01T09:07:31;8.17;;;6.00;;
36855;SDS011;22788;51.434;6.786;2023-03-01T09:09:57;11.80;;;7.33;;
36855;SDS011;22788;51.434;6.786;2023-03-01T09:12:23;12.80;;;7.10;;
36855;SDS011;22788;51.434;6.786;2023-03-01T09:14:49;9.73;;;7.07;;
36855;SDS011;22788;51.434;6.786;2023-03-01T09:17:16;9.10;;;6.50;;
36855;SDS011;22788;51.434;6.786;2023-03-01T09:19:42;9.57;;;6.63;;
36855;SDS011;22788;51.434;6.786;2023-03-01T09:22:08;7.50;;;6.13;;
36855;SDS011;22788;51.434;6.786;2023-03-01T09:24:35;11.93;;;6.97;;
36855;SDS011;22788;51.434;6.786;2023-03-01T09:27:01;10.33;;;7.40;;
36855;SDS011;22788;51.434;6.786;2023-03-01T09:29:27;10.37;;;6.90;;
36855;SDS011;22788;51.434;6.786;2023-03-01T09:31:53;8.43;;;6.50;;
36855;SDS011;22788;51.434;6.786;2023-03-01T09:34:20;9.77;;;6.77;;
36855;SDS011;22788;51.434;6.786;2023-03-01T09:36:46;8.10;;;6.87;;
36855;SDS011;22788;51.434;6.786;2023-03-01T09:39:12;9.43;;;6.03;;
36855;SDS011;22788;51.434;6.786;2023-03-01T09:41:44;8.87;;;6.30;;
36855;SDS011;22788;51.434;6.786;2023-03-01T09:44:16;11.97;;;6.50;;
36855;SDS011;22788;51.434;6.786;2023-03-01T09:46:52;8.90;;;6.43;;
36855;SDS011;22788;51.434;6.786;2023-03-01T09:49:20;10.80;;;6.73;;
36855;SDS011;22788;51.434;6.786;2023-03-01T09:51:55;15.73;;;6.63;;
36855;SDS011;22788;51.434;6.786;2023-03-01T09:54:23;8.27;;;6.33;;
36855;SDS011;22788;51.434;6.786;2023-03-01T09:56:56;11.07;;;6.83;;
36855;SDS011;22788;51.434;6.786;2023-03-01T09:59:33;7.93;;;6.13;;
36855;SDS011;22788;51.434;6.786;2023-03-01T10:02:13;9.13;;;6.23;;
36855;SDS011;22788;51.434;6.786;2023-03-01T10:04:48;10.80;;;6.60;;
36855;SDS011;22788;51.434;6.786;2023-03-01T10:07:20;7.97;;;6.07;;
36855;SDS011;22788;51.434;6.786;2023-03-01T10:09:52;10.83;;;6.63;;
36855;SDS011;22788;51.434;6.786;2023-03-01T10:12:19;10.53;;;6.67;;
36855;SDS011;22788;51.434;6.786;2023-03-01T10:14:51;9.80;;;6.33;;
36855;SDS011;22788;51.434;6.786;2023-03-01T10:17:27;9.43;;;6.03;;
36855;SDS011;22788;51.434;6.786;2023-03-01T10:20:06;8.30;;;6.37;;
36855;SDS011;22788;51.434;6.786;2023-03-01T10:22:40;9.10;;;6.67;;
36855;SDS011;22788;51.434;6.786;2023-03-01T10:25:08;8.23;;;5.70;;
36855;SDS011;22788;51.434;6.786;2023-03-01T10:27:41;8.67;;;6.00;;
36855;SDS011;22788;51.434;6.786;2023-03-01T10:30:13;9.67;;;6.10;;
36855;SDS011;22788;51.434;6.786;2023-03-01T10:32:44;10.67;;;6.50;;
36855;SDS011;22788;51.434;6.786;2023-03-01T10:35:17;8.03;;;6.37;;
36855;SDS011;22788;51.434;6.786;2023-03-01T10:37:57;8.37;;;6.30;;
36855;SDS011;22788;51.434;6.786;2023-03-01T10:40:27;7.53;;;6.07;;
36855;SDS011;22788;51.434;6.786;2023-03-01T10:42:54;9.30;;;6.00;;
36855;SDS011;22788;51.434;6.786;2023-03-01T10:45:27;6.50;;;5.47;;
36855;SDS011;22788;51.434;6.786;2023-03-01T10:48:04;8.50;;;6.13;;
36855;SDS011;22788;51.434;6.786;2023-03-01T10:50:33;8.97;;;6.63;;
36855;SDS011;22788;51.434;6.786;2023-03-01T10:53:00;8.63;;;6.10;;
36855;SDS011;22788;51.434;6.786;2023-03-01T10:55:28;6.33;;;4.83;;
36855;SDS011;22788;51.434;6.786;2023-03-01T10:58:09;7.37;;;5.50;;
36855;SDS011;22788;51.434;6.786;2023-03-01T11:00:46;9.03;;;6.57;;
36855;SDS011;22788;51.434;6.786;2023-03-01T11:03:16;8.60;;;6.30;;
36855;SDS011;22788;51.434;6.786;2023-03-01T11:05:56;7.27;;;5.50;;
36855;SDS011;22788;51.434;6.786;2023-03-01T11:08:34;12.90;;;6.33;;
36855;SDS011;22788;51.434;6.786;2023-03-01T11:11:16;8.07;;;6.10;;
36855;SDS011;22788;51.434;6.786;2023-03-01T11:13:55;9.27;;;5.60;;
36855;SDS011;22788;51.434;6.786;2023-03-01T11:16:29;8.87;;;6.03;;
36855;SDS011;22788;51.434;6.786;2023-03-01T11:18:59;10.87;;;5.80;;
36855;SDS011;22788;51.434;6.786;2023-03-01T11:21:46;9.83;;;5.40;;
36855;SDS011;22788;51.434;6.786;2023-03-01T11:24:17;7.57;;;5.30;;
36855;SDS011;22788;51.434;6.786;2023-03-01T11:26:46;9.90;;;5.27;;
36855;SDS011;22788;51.434;6.786;2023-03-01T11:29:18;6.23;;;5.20;;
36855;SDS011;22788;51.434;6.786;2023-03-01T11:31:52;8.17;;;5.73;;
36855;SDS011;22788;51.434;6.786;2023-03-01T11:34:23;6.67;;;5.23;;
36855;SDS011;22788;51.434;6.786;2023-03-01T11:37:03;8.40;;;5.03;;
36855;SDS011;22788;51.434;6.786;2023-03-01T11:39:53;7.90;;;4.83;;
36855;SDS011;22788;51.434;6.786;2023-03-01T11:42:25;8.30;;;5.10;;
36855;SDS011;22788;51.434;6.786;2023-03-01T11:44:56;9.73;;;5.30;;
36855;SDS011;22788;51.434;6.786;2023-03-01T11:47:30;7.60;;;4.90;;
36855;SDS011;22788;51.434;6.786;2023-03-01T11:50:12;5.70;;;4.97;;
36855;SDS011;22788;51.434;6.786;2023-03-01T11:52:56;8.10;;;4.70;;
36855;SDS011;22788;51.434;6.786;2023-03-01T11:55:36;6.33;;;4.97;;
36855;SDS011;22788;51.434;6.786;2023-03-01T11:58:14;5.73;;;4.67;;
36855;SDS011;22788;51.434;6.786;2023-03-01T12:00:59;7.87;;;5.20;;
36855;SDS011;22788;51.434;6.786;2023-03-01T12:03:33;8.95;;;6.45;;
36855;SDS011;22788;51.434;6.786;2023-03-01T12:06:19;8.20;;;5.13;;
36855;SDS011;22788;51.434;6.786;2023-03-01T12:09:02;6.93;;;5.10;;
36855;SDS011;22788;51.434;6.786;2023-03-01T12:11:52;8.77;;;4.97;;
36855;SDS011;22788;51.434;6.786;2023-03-01T12:14:49;7.53;;;5.10;;
36855;SDS011;22788;51.434;6.786;2023-03-01T12:17:24;6.10;;;4.57;;
36855;SDS011;22788;51.434;6.786;2023-03-01T12:20:02;9.77;;;5.50;;
36855;SDS011;22788;51.434;6.786;2023-03-01T12:22:43;8.67;;;5.03;;
36855;SDS011;22788;51.434;6.786;2023-03-01T12:25:27;6.53;;;5.07;;
36855;SDS011;22788;51.434;6.786;2023-03-01T12:28:01;7.90;;;5.10;;
36855;SDS011;22788;51.434;6.786;2023-03-01T12:30:42;9.97;;;5.13;;
36855;SDS011;22788;51.434;6.786;2023-03-01T12:33:17;6.67;;;4.40;;
36855;SDS011;22788;51.434;6.786;2023-03-01T12:35:53;8.20;;;4.73;;
36855;SDS011;22788;51.434;6.786;2023-03-01T12:38:32;6.97;;;4.73;;
36855;SDS011;22788;51.434;6.786;2023-03-01T12:41:15;8.77;;;4.73;;
36855;SDS011;22788;51.434;6.786;2023-03-01T12:43:58;7.77;;;4.83;;
36855;SDS011;22788;51.434;6.786;2023-03-01T12:46:36;6.53;;;5.37;;
36855;SDS011;22788;51.434;6.786;2023-03-01T12:49:13;5.70;;;4.83;;
36855;SDS011;22788;51.434;6.786;2023-03-01T12:51:42;7.80;;;5.07;;
36855;SDS011;22788;51.434;6.786;2023-03-01T12:54:15;7.23;;;4.83;;
36855;SDS011;22788;51.434;6.786;2023-03-01T12:56:47;6.63;;;5.37;;
36855;SDS011;22788;51.434;6.786;2023-03-01T12:59:15;7.67;;;5.80;;
36855;SDS011;22788;51.434;6.786;2023-03-01T13:01:49;8.03;;;5.30;;
36855;SDS011;22788;51.434;6.786;2023-03-01T13:04:25;7.67;;;4.90;;
36855;SDS011;22788;51.434;6.786;2023-03-01T13:07:03;7.33;;;5.00;;
36855;SDS011;22788;51.434;6.786;2023-03-01T13:09:37;10.87;;;5.30;;
36855;SDS011;22788;51.434;6.786;2023-03-01T13:15:25;7.73;;;5.60;;
36855;SDS011;22788;51.434;6.786;2023-03-01T13:17:53;6.67;;;4.93;;
36855;SDS011;22788;51.434;6.786;2023-03-01T13:20:21;6.63;;;4.90;;
36855;SDS011;22788;51.434;6.786;2023-03-01T13:23:00;6.63;;;4.80;;
36855;SDS011;22788;51.434;6.786;2023-03-01T13:25:28;12.57;;;4.93;;
36855;SDS011;22788;51.434;6.786;2023-03-01T13:28:35;11.73;;;4.83;;
36855;SDS011;22788;51.434;6.786;2023-03-01T13:31:11;6.93;;;4.40;;
36855;SDS011;22788;51.434;6.786;2023-03-01T13:37:25;9.07;;;4.57;;
36855;SDS011;22788;51.434;6.786;2023-03-01T13:39:59;7.63;;;4.83;;
36855;SDS011;22788;51.434;6.786;2023-03-01T13:42:31;7.90;;;4.17;;
36855;SDS011;22788;51.434;6.786;2023-03-01T13:45:02;8.47;;;4.87;;
36855;SDS011;22788;51.434;6.786;2023-03-01T13:47:29;6.43;;;4.67;;
36855;SDS011;22788;51.434;6.786;2023-03-01T13:49:59;8.50;;;5.03;;
36855;SDS011;22788;51.434;6.786;2023-03-01T13:52:37;6.63;;;4.43;;
36855;SDS011;22788;51.434;6.786;2023-03-01T13:55:06;5.67;;;4.10;;
36855;SDS011;22788;51.434;6.786;2023-03-01T13:57:44;10.63;;;4.43;;
36855;SDS011;22788;51.434;6.786;2023-03-01T14:00:26;7.17;;;5.10;;
36855;SDS011;22788;51.434;6.786;2023-03-01T14:05:39;7.80;;;5.23;;
36855;SDS011;22788;51.434;6.786;2023-03-01T14:08:17;8.53;;;5.47;;
36855;SDS011;22788;51.434;6.786;2023-03-01T14:10:48;6.53;;;4.50;;
36855;SDS011;22788;51.434;6.786;2023-03-01T14:13:23;9.90;;;4.90;;
36855;SDS011;22788;51.434;6.786;2023-03-01T14:16:06;8.07;;;5.03;;
36855;SDS011;22788;51.434;6.786;2023-03-01T14:18:43;8.30;;;5.03;;
36855;SDS011;22788;51.434;6.786;2023-03-01T14:21:18;7.87;;;4.83;;
36855;SDS011;22788;51.434;6.786;2023-03-01T14:23:44;7.80;;;5.17;;
36855;SDS011;22788;51.434;6.786;2023-03-01T14:26:11;6.47;;;4.80;;
36855;SDS011;22788;51.434;6.786;2023-03-01T14:28:38;11.27;;;5.20;;
36855;SDS011;22788;51.434;6.786;2023-03-01T14:33:58;7.97;;;4.77;;
36855;SDS011;22788;51.434;6.786;2023-03-01T14:36:26;8.93;;;4.90;;
36855;SDS011;22788;51.434;6.786;2023-03-01T14:38:53;9.57;;;5.47;;
36855;SDS011;22788;51.434;6.786;2023-03-01T14:41:20;6.70;;;4.73;;
36855;SDS011;22788;51.434;6.786;2023-03-01T14:43:49;6.03;;;4.50;;
36855;SDS011;22788;51.434;6.786;2023-03-01T14:46:19;9.37;;;4.80;;
36855;SDS011;22788;51.434;6.786;2023-03-01T14:48:49;6.77;;;5.00;;
36855;SDS011;22788;51.434;6.786;2023-03-01T14:51:16;7.90;;;5.47;;
36855;SDS011;22788;51.434;6.786;2023-03-01T14:53:42;8.30;;;5.07;;
36855;SDS011;22788;51.434;6.786;2023-03-01T14:56:12;6.70;;;4.37;;
36855;SDS011;22788;51.434;6.786;2023-03-01T14:58:40;8.07;;;5.33;;
36855;SDS011;22788;51.434;6.786;2023-03-01T15:01:06;10.07;;;5.97;;
36855;SDS011;22788;51.434;6.786;2023-03-01T15:03:40;7.13;;;5.00;;
36855;SDS011;22788;51.434;6.786;2023-03-01T15:06:09;6.97;;;4.90;;
36855;SDS011;22788;51.434;6.786;2023-03-01T15:08:41;7.43;;;5.20;;
36855;SDS011;22788;51.434;6.786;2023-03-01T15:11:17;9.40;;;5.73;;
36855;SDS011;22788;51.434;6.786;2023-03-01T15:13:45;8.43;;;6.00;;